Time;durP1;ratioP1;P1;durP2;ratioP2;P2;SDS_P1;SDS_P2;PMS_P1;PMS_P2;Temp;Humidity;BMP_temperature;BMP_pressure;BME280_temperature;BME280_humidity;BME280_pressure;Samples;Min_cycle;Max_cycle;Signal;HPM_P1;HPM_P2
2022/10/12 00:01:31;;;;;;;20.73;12.82;;;;;;;14.24;70.79;99798.97;5158391;28;20049;-75
2022/10/12 00:04:22;;;;;;;22.10;12.50;;;;;;;14.13;70.88;99793.81;5161819;28;20062;-75
2022/10/12 00:07:12;;;;;;;27.42;12.27;;;;;;;14.00;69.90;99792.31;5146337;28;20065;-75
2022/10/12 00:10:03;;;;;;;25.58;12.23;;;;;;;14.16;70.97;99804.19;5173215;28;20050;-74
2022/10/12 00:12:54;;;;;;;24.13;13.13;;;;;;;14.30;69.92;99798.34;5146809;28;20051;-74
2022/10/12 00:15:45;;;;;;;24.25;12.88;;;;;;;14.13;70.12;99791.13;5147103;28;20120;-74
2022/10/12 00:18:39;;;;;;;21.85;12.88;;;;;;;14.00;70.95;99805.63;5146937;28;20529;-75
2022/10/12 00:21:34;;;;;;;24.92;12.43;;;;;;;13.63;70.46;99742.50;5157813;28;20046;-76
2022/10/12 00:24:28;;;;;;;24.85;13.18;;;;;;;13.55;70.70;99718.41;5184387;28;20454;-75
2022/10/12 00:27:22;;;;;;;23.45;13.02;;;;;;;14.06;69.88;99785.56;5201150;28;20065;-74
2022/10/12 00:30:18;;;;;;;27.38;13.35;;;;;;;13.89;71.25;99795.16;5191695;28;20061;-74
2022/10/12 00:33:09;;;;;;;29.45;13.38;;;;;;;13.94;70.90;99790.25;5196887;28;20071;-74
2022/10/12 00:36:15;;;;;;;28.40;13.27;;;;;;;13.83;70.68;99780.59;5173293;28;20095;-74
2022/10/12 00:39:08;;;;;;;24.73;13.48;;;;;;;13.73;71.07;99770.94;5187605;28;20052;-76
2022/10/12 00:41:58;;;;;;;32.70;14.23;;;;;;;13.92;70.63;99789.53;5170425;28;20172;-75
2022/10/12 00:44:50;;;;;;;26.05;13.20;;;;;;;13.99;70.57;99790.63;5189631;28;20516;-75
2022/10/12 00:47:49;;;;;;;26.08;14.73;;;;;;;13.98;70.81;99788.13;5190202;28;20072;-77
2022/10/12 00:50:39;;;;;;;23.60;13.50;;;;;;;13.87;70.77;99781.13;5173730;28;20047;-75
2022/10/12 00:53:49;;;;;;;29.13;12.98;;;;;;;13.65;70.96;99774.34;5165249;28;20054;-75
2022/10/12 00:56:43;;;;;;;25.13;13.00;;;;;;;13.40;71.75;99765.13;5163162;28;20700;-76
2022/10/12 00:59:48;;;;;;;23.65;12.25;;;;;;;13.55;70.31;99782.34;5156442;28;20050;-77
2022/10/12 01:02:41;;;;;;;28.52;13.20;;;;;;;13.38;70.98;99756.47;5201760;28;20515;-75
2022/10/12 01:05:32;;;;;;;28.43;12.00;;;;;;;13.40;71.06;99759.81;5204884;28;20060;-75
2022/10/12 01:08:22;;;;;;;25.70;12.38;;;;;;;13.38;70.54;99775.09;5205127;28;20646;-76
2022/10/12 01:11:12;;;;;;;22.90;12.13;;;;;;;13.28;71.28;99780.44;5199421;28;20049;-75
2022/10/12 01:14:03;;;;;;;21.45;12.90;;;;;;;13.36;71.00;99787.72;5205879;28;20049;-76
2022/10/12 01:17:22;;;;;;;22.73;12.50;;;;;;;13.47;70.47;99784.88;5203640;28;20139;-76
2022/10/12 01:20:28;;;;;;;25.52;12.20;;;;;;;13.30;71.04;99777.63;5199449;28;20448;-77
2022/10/12 01:23:24;;;;;;;21.17;12.82;;;;;;;13.26;71.34;99774.41;5203299;28;20057;-77
2022/10/12 01:26:23;;;;;;;25.38;12.85;;;;;;;13.27;71.05;99778.75;5203750;28;20056;-76
2022/10/12 01:29:49;;;;;;;30.88;13.32;;;;;;;13.25;71.19;99774.56;5201147;28;20410;-76
2022/10/12 01:33:04;;;;;;;22.27;12.57;;;;;;;13.08;70.61;99774.25;5203294;28;20495;-76
2022/10/12 01:36:06;;;;;;;22.48;12.65;;;;;;;12.99;70.96;99768.94;5189705;28;20108;-76
2022/10/12 01:39:08;;;;;;;26.63;13.15;;;;;;;13.10;70.98;99771.44;5203364;28;20724;-76
2022/10/12 01:42:03;;;;;;;21.77;12.98;;;;;;;12.92;71.16;99758.84;5169600;28;20773;-75
2022/10/12 01:45:01;;;;;;;23.40;12.73;;;;;;;13.02;71.01;99773.97;5178670;28;20060;-75
2022/10/12 01:47:53;;;;;;;19.88;12.85;;;;;;;12.69;71.82;99766.25;5182842;28;20069;-75
2022/10/12 01:50:49;;;;;;;25.27;12.23;;;;;;;12.67;71.68;99770.84;5179422;28;20060;-75
2022/10/12 01:54:07;;;;;;;20.73;11.85;;;;;;;12.58;70.52;99769.06;5145522;28;20062;-75
2022/10/12 01:57:03;;;;;;;21.38;11.95;;;;;;;12.63;70.86;99769.47;5163061;28;20517;-75
2022/10/12 02:00:08;;;;;;;23.33;12.88;;;;;;;12.69;70.27;99774.22;5154374;28;20046;-76
2022/10/12 02:03:27;;;;;;;27.40;12.65;;;;;;;12.59;70.75;99769.88;5203535;28;20095;-75
2022/10/12 02:06:20;;;;;;;22.85;12.68;;;;;;;12.55;70.67;99774.66;5203998;28;20133;-75
2022/10/12 02:09:20;;;;;;;21.77;12.60;;;;;;;12.14;71.18;99755.22;5203337;28;20056;-76
2022/10/12 02:12:19;;;;;;;25.00;12.45;;;;;;;12.11;70.96;99776.75;5201315;28;20108;-76
2022/10/12 02:15:12;;;;;;;28.50;12.35;;;;;;;12.26;71.17;99755.94;5204297;28;20057;-76
2022/10/12 02:18:04;;;;;;;19.98;11.75;;;;;;;12.31;70.83;99768.81;5203286;28;20111;-75
2022/10/12 02:20:59;;;;;;;25.85;14.02;;;;;;;12.29;71.23;99776.13;5179207;28;20050;-75
2022/10/12 02:23:53;;;;;;;24.63;11.90;;;;;;;12.40;71.55;99768.03;5162214;28;20050;-76
2022/10/12 02:26:47;;;;;;;25.38;13.05;;;;;;;12.32;71.44;99766.06;5161367;28;20058;-75
2022/10/12 02:29:40;;;;;;;28.77;12.90;;;;;;;12.42;71.51;99766.91;5151504;28;20500;-75
2022/10/12 02:32:46;;;;;;;25.23;13.60;;;;;;;12.26;71.48;99763.09;5203087;28;20050;-76
2022/10/12 02:35:47;;;;;;;26.65;13.32;;;;;;;12.24;71.55;99763.22;5188907;28;20068;-78
2022/10/12 02:38:41;;;;;;;21.65;12.90;;;;;;;12.31;71.88;99768.81;5203302;28;20057;-75
2022/10/12 02:41:40;;;;;;;25.65;13.27;;;;;;;12.37;71.47;99763.81;5183448;28;20048;-76
2022/10/12 02:44:35;;;;;;;28.52;14.40;;;;;;;12.42;72.34;99753.63;5202512;28;20054;-76
2022/10/12 02:47:28;;;;;;;25.38;13.23;;;;;;;12.57;72.25;99759.38;5187865;28;20526;-75
2022/10/12 02:50:20;;;;;;;23.55;13.43;;;;;;;12.49;72.08;99758.38;5192689;28;20053;-76
2022/10/12 02:53:11;;;;;;;27.33;13.63;;;;;;;12.36;73.47;99766.63;5196779;28;20111;-76
2022/10/12 02:56:09;;;;;;;21.67;12.88;;;;;;;12.40;72.46;99762.69;5203162;28;20060;-76
2022/10/12 02:58:59;;;;;;;21.92;12.40;;;;;;;12.37;72.80;99745.19;5188019;28;20128;-76
2022/10/12 03:01:49;;;;;;;24.50;12.68;;;;;;;12.39;73.12;99742.41;5186184;28;20072;-76
2022/10/12 03:04:39;;;;;;;22.55;12.50;;;;;;;12.39;73.22;99743.25;5203583;28;20525;-75
2022/10/12 03:07:30;;;;;;;24.33;12.50;;;;;;;12.44;72.89;99737.50;5202339;28;20154;-75
2022/10/12 03:10:19;;;;;;;27.80;11.80;;;;;;;12.57;73.14;99754.03;5190263;28;20467;-76
2022/10/12 03:13:09;;;;;;;24.45;12.80;;;;;;;12.60;73.03;99748.44;5162358;28;20061;-75
2022/10/12 03:16:04;;;;;;;23.75;12.23;;;;;;;12.66;72.80;99757.72;5162153;28;20161;-75
2022/10/12 03:18:54;;;;;;;24.40;12.77;;;;;;;12.70;72.42;99762.59;5162043;28;20080;-76
2022/10/12 03:21:44;;;;;;;26.25;12.25;;;;;;;12.71;72.37;99755.44;5167773;28;20045;-75
2022/10/12 03:24:34;;;;;;;23.42;12.23;;;;;;;12.83;71.70;99767.66;5203313;28;20133;-76
2022/10/12 03:27:25;;;;;;;26.50;12.60;;;;;;;12.79;72.75;99760.94;5202633;28;20136;-74
2022/10/12 03:30:15;;;;;;;24.83;12.25;;;;;;;12.86;72.37;99747.91;5172641;28;20046;-74
2022/10/12 03:33:05;;;;;;;30.85;13.00;;;;;;;13.02;72.49;99755.34;5192169;28;20049;-74
2022/10/12 03:35:56;;;;;;;21.85;12.80;;;;;;;12.99;72.28;99764.44;5202427;28;20064;-75
2022/10/12 03:38:46;;;;;;;28.05;12.77;;;;;;;12.91;72.20;99764.28;5202283;28;20104;-74
2022/10/12 03:41:36;;;;;;;28.48;12.13;;;;;;;12.78;72.33;99742.44;5163095;28;20057;-74
2022/10/12 03:44:26;;;;;;;28.05;12.13;;;;;;;12.94;72.25;99759.53;5197911;28;20057;-75
2022/10/12 03:47:16;;;;;;;22.38;11.93;;;;;;;12.98;72.05;99768.09;5201798;28;20064;-74
2022/10/12 03:50:07;;;;;;;24.10;11.82;;;;;;;12.98;72.04;99753.91;5152881;28;20050;-74
2022/10/12 03:52:57;;;;;;;21.50;12.63;;;;;;;12.88;72.84;99769.88;5175751;28;20081;-74
2022/10/12 03:55:47;;;;;;;27.80;11.90;;;;;;;12.80;72.77;99759.13;5202564;28;20203;-74
2022/10/12 03:58:37;;;;;;;23.92;12.15;;;;;;;12.87;72.38;99760.22;5187195;28;20058;-74
2022/10/12 04:01:27;;;;;;;24.10;11.63;;;;;;;12.95;71.89;99765.72;5186974;28;20064;-74
2022/10/12 04:04:17;;;;;;;21.02;11.60;;;;;;;12.95;71.53;99752.41;5202716;28;20057;-74
2022/10/12 04:07:07;;;;;;;19.73;11.60;;;;;;;12.96;71.24;99756.75;5201831;28;20061;-74
2022/10/12 04:09:57;;;;;;;22.88;11.45;;;;;;;12.54;72.05;99749.00;5175423;28;20134;-74
2022/10/12 04:12:47;;;;;;;21.83;10.80;;;;;;;12.50;72.18;99762.72;5192143;28;20060;-74
2022/10/12 04:15:37;;;;;;;19.27;11.52;;;;;;;12.65;71.54;99764.00;5202827;28;20061;-74
2022/10/12 04:18:28;;;;;;;18.23;10.48;;;;;;;12.58;71.55;99760.19;5202514;28;20554;-74
2022/10/12 04:21:20;;;;;;;17.48;11.25;;;;;;;12.61;71.61;99770.56;5185485;28;20423;-74
2022/10/12 04:24:11;;;;;;;20.58;10.90;;;;;;;12.40;71.34;99730.78;5203082;28;20192;-74
2022/10/12 04:27:01;;;;;;;22.60;12.45;;;;;;;12.23;72.27;99761.53;5190561;28;20136;-74
2022/10/12 04:29:51;;;;;;;34.03;16.20;;;;;;;12.25;71.18;99772.91;5169545;28;20057;-74
2022/10/12 04:32:41;;;;;;;41.70;20.45;;;;;;;12.34;71.77;99773.88;5188388;28;20555;-73
2022/10/12 04:35:31;;;;;;;23.40;12.18;;;;;;;12.39;71.45;99784.97;5187837;28;20060;-74
2022/10/12 04:38:21;;;;;;;25.77;12.25;;;;;;;12.45;71.16;99774.63;5192490;28;20535;-73
2022/10/12 04:41:11;;;;;;;23.95;11.55;;;;;;;12.51;71.27;99775.88;5190543;28;20060;-74
2022/10/12 04:44:01;;;;;;;19.77;11.10;;;;;;;12.57;71.43;99785.97;5206352;28;20049;-74
2022/10/12 04:46:51;;;;;;;19.98;11.35;;;;;;;12.43;72.04;99786.38;5196834;28;20127;-74
2022/10/12 04:49:41;;;;;;;21.35;11.38;;;;;;;12.23;72.00;99770.34;5176799;28;20045;-74
2022/10/12 04:52:31;;;;;;;20.27;10.88;;;;;;;12.23;72.43;99767.69;5205004;28;20674;-74
2022/10/12 04:55:21;;;;;;;25.42;12.18;;;;;;;12.51;72.50;99791.84;5205864;28;20160;-74
2022/10/12 04:58:11;;;;;;;27.15;12.50;;;;;;;12.53;71.83;99789.88;5187348;28;20415;-74
2022/10/12 05:01:01;;;;;;;21.90;12.10;;;;;;;12.52;72.29;99776.75;5192951;28;20056;-74
2022/10/12 05:03:51;;;;;;;24.42;11.88;;;;;;;12.54;72.12;99788.06;5194272;28;20522;-74
2022/10/12 05:06:42;;;;;;;21.25;12.30;;;;;;;12.63;72.22;99781.94;5168988;28;20112;-74
2022/10/12 05:09:31;;;;;;;30.35;13.27;;;;;;;12.70;72.38;99765.25;5184563;28;20404;-75
2022/10/12 05:12:21;;;;;;;27.13;14.32;;;;;;;12.97;72.21;99793.00;5204010;28;20042;-75
2022/10/12 05:15:11;;;;;;;31.65;13.50;;;;;;;12.67;73.89;99762.03;5205485;28;20057;-75
2022/10/12 05:18:01;;;;;;;24.77;12.95;;;;;;;12.88;73.35;99783.19;5204325;28;20050;-75
2022/10/12 05:20:51;;;;;;;29.52;12.98;;;;;;;12.81;73.10;99782.06;5190352;28;20559;-75
2022/10/12 05:23:50;;;;;;;;;;;;;;;12.80;74.08;99791.88;5199073;28;20057;-75
2022/10/12 05:26:40;;;;;;;22.55;13.05;;;;;;;12.86;73.17;99777.19;5203466;28;19984;-74
2022/10/12 05:29:30;;;;;;;19.92;11.63;;;;;;;12.91;72.62;99783.78;5164642;28;20054;-73
2022/10/12 05:32:21;;;;;;;24.13;12.75;;;;;;;12.88;72.59;99769.88;5190580;28;20057;-75
2022/10/12 05:35:11;;;;;;;27.70;12.15;;;;;;;12.96;72.79;99780.69;5184863;28;20136;-76
2022/10/12 05:38:00;;;;;;;21.90;12.38;;;;;;;12.86;73.14;99790.50;5183558;28;20061;-76
2022/10/12 05:40:51;;;;;;;22.15;11.48;;;;;;;12.85;72.53;99778.19;5178617;28;20046;-73
2022/10/12 05:43:48;;;;;;;19.48;10.82;;;;;;;12.91;72.17;99794.44;5198513;28;20076;-73
2022/10/12 05:46:38;;;;;;;22.95;11.38;;;;;;;12.99;72.68;99785.75;5182488;28;20144;-74
2022/10/12 05:49:29;;;;;;;21.83;12.35;;;;;;;13.07;72.72;99793.03;5182564;28;20056;-75
2022/10/12 05:52:19;;;;;;;23.98;11.60;;;;;;;13.04;72.63;99793.28;5175730;28;20141;-76
2022/10/12 05:55:09;;;;;;;20.27;11.57;;;;;;;13.02;72.76;99796.13;5169185;28;20057;-74
2022/10/12 05:57:59;;;;;;;26.20;12.38;;;;;;;13.16;72.26;99798.34;5183466;28;20427;-74
2022/10/12 06:00:49;;;;;;;25.00;11.77;;;;;;;13.08;72.32;99795.56;5185658;28;20164;-77
2022/10/12 06:03:40;;;;;;;27.08;12.30;;;;;;;13.19;72.10;99799.06;5194946;28;20108;-76
2022/10/12 06:06:30;;;;;;;29.20;11.93;;;;;;;13.14;72.13;99794.13;5182184;28;20057;-77
2022/10/12 06:09:20;;;;;;;25.50;11.85;;;;;;;13.06;71.86;99781.53;5182376;28;20516;-76
2022/10/12 06:12:11;;;;;;;28.75;12.07;;;;;;;13.19;72.18;99804.38;5175623;28;20052;-75
2022/10/12 06:15:01;;;;;;;26.95;11.77;;;;;;;13.18;71.97;99782.25;5186353;28;20085;-76
2022/10/12 06:17:51;;;;;;;29.02;11.98;;;;;;;13.21;72.43;99795.28;5182872;28;20432;-75
2022/10/12 06:20:50;;;;;;;28.45;12.93;;;;;;;13.31;71.59;99797.94;5183073;28;20147;-73
2022/10/12 06:23:58;;;;;;;20.10;12.00;;;;;;;13.38;71.69;99815.06;5203977;28;20049;-76
2022/10/12 06:26:48;;;;;;;27.67;12.48;;;;;;;13.34;72.38;99808.31;5182718;28;20058;-77
2022/10/12 06:29:38;;;;;;;28.98;12.93;;;;;;;13.58;71.80;99803.38;5183158;28;20205;-76
2022/10/12 06:32:29;;;;;;;24.38;12.57;;;;;;;13.54;71.98;99799.34;5168979;28;20088;-76
2022/10/12 06:35:19;;;;;;;24.38;12.98;;;;;;;13.58;71.91;99802.56;5165209;28;20132;-73
2022/10/12 06:38:09;;;;;;;32.88;14.95;;;;;;;13.66;71.57;99810.66;5164449;28;20052;-74
2022/10/12 06:40:59;;;;;;;28.35;13.55;;;;;;;13.60;72.05;99805.91;5180406;28;20132;-74
2022/10/12 06:43:49;;;;;;;28.85;13.48;;;;;;;13.69;71.90;99809.53;5182345;28;20053;-72
2022/10/12 06:46:39;;;;;;;30.08;12.93;;;;;;;13.58;71.46;99803.38;5181001;28;20056;-72
2022/10/12 06:49:30;;;;;;;23.10;12.10;;;;;;;13.67;71.06;99811.50;5179657;28;20089;-73
2022/10/12 06:52:20;;;;;;;32.58;12.80;;;;;;;13.74;71.10;99807.25;5184314;28;20506;-73
2022/10/12 06:55:10;;;;;;;22.25;11.80;;;;;;;13.71;71.25;99795.09;5181452;28;20050;-72
2022/10/12 06:58:00;;;;;;;20.65;12.05;;;;;;;13.75;70.79;99811.63;5149345;28;20052;-71
2022/10/12 07:00:51;;;;;;;27.27;12.90;;;;;;;13.92;70.91;99805.53;5181443;28;20209;-71
2022/10/12 07:03:41;;;;;;;24.55;11.73;;;;;;;13.82;70.03;99810.06;5157552;28;20185;-71
2022/10/12 07:06:31;;;;;;;28.13;12.88;;;;;;;13.77;70.89;99807.81;5157173;28;20112;-72
2022/10/12 07:09:21;;;;;;;26.77;13.43;;;;;;;13.92;70.61;99810.03;5142833;28;20054;-72
2022/10/12 07:12:12;;;;;;;32.20;13.27;;;;;;;13.97;71.04;99813.97;5167215;28;20056;-71
2022/10/12 07:15:04;;;;;;;26.20;12.60;;;;;;;14.09;70.26;99809.25;5167459;28;20064;-73
2022/10/12 07:17:54;;;;;;;29.17;13.75;;;;;;;14.23;70.60;99816.78;5165112;28;20069;-73
2022/10/12 07:20:45;;;;;;;27.42;13.32;;;;;;;14.30;69.82;99811.69;5164218;28;20123;-72
2022/10/12 07:23:37;;;;;;;22.17;12.50;;;;;;;14.23;70.26;99821.28;5161685;28;20068;-73
2022/10/12 07:26:32;;;;;;;24.60;12.88;;;;;;;14.38;69.78;99809.13;5159787;28;20085;-72
2022/10/12 07:29:23;;;;;;;26.60;13.05;;;;;;;14.39;69.73;99821.47;5125374;28;20244;-71
2022/10/12 07:32:13;;;;;;;27.17;13.45;;;;;;;14.37;70.61;99811.94;5155629;28;20050;-73
2022/10/12 07:35:04;;;;;;;25.10;13.18;;;;;;;14.26;70.70;99804.97;5156060;28;20066;-72
2022/10/12 07:37:54;;;;;;;32.00;14.05;;;;;;;14.17;71.15;99813.84;5156650;28;20061;-72
2022/10/12 07:40:44;;;;;;;29.80;13.88;;;;;;;14.44;70.83;99810.38;5157333;28;20053;-72
2022/10/12 07:43:34;;;;;;;25.70;14.07;;;;;;;14.69;70.25;99809.69;5164620;28;20065;-71
2022/10/12 07:46:24;;;;;;;35.35;15.18;;;;;;;14.78;70.06;99816.78;5164448;28;20541;-71
2022/10/12 07:49:15;;;;;;;29.15;14.15;;;;;;;14.92;69.33;99810.09;5164557;28;20064;-72
2022/10/12 07:52:05;;;;;;;28.30;14.20;;;;;;;14.61;71.39;99808.78;5164001;28;20443;-73
2022/10/12 07:54:55;;;;;;;24.58;13.77;;;;;;;14.96;70.11;99811.47;5165211;28;20436;-74
2022/10/12 07:57:45;;;;;;;29.67;14.88;;;;;;;15.14;68.80;99800.78;5149678;28;20060;-71
2022/10/12 08:00:36;;;;;;;32.58;13.63;;;;;;;15.35;68.62;99816.50;5158383;28;20069;-73
2022/10/12 08:03:26;;;;;;;29.73;13.70;;;;;;;15.10;69.00;99801.22;5160675;28;20064;-71
2022/10/12 08:06:20;;;;;;;25.05;13.35;;;;;;;15.57;69.04;99803.66;5164539;28;20508;-73
2022/10/12 08:09:11;;;;;;;28.00;13.52;;;;;;;15.89;68.30;99814.59;5152022;28;20066;-72
2022/10/12 08:12:02;;;;;;;27.05;14.73;;;;;;;15.67;68.61;99810.59;5168433;28;20634;-71
2022/10/12 08:14:52;;;;;;;26.83;14.55;;;;;;;15.75;68.13;99793.75;5168641;28;20065;-76
2022/10/12 08:17:43;;;;;;;31.65;14.18;;;;;;;15.91;68.62;99817.09;5173772;28;20088;-71
2022/10/12 08:20:33;;;;;;;39.25;15.15;;;;;;;15.81;68.73;99822.56;5164980;28;20061;-72
2022/10/12 08:23:23;;;;;;;29.50;14.30;;;;;;;16.21;67.35;99818.44;5161216;28;20076;-71
2022/10/12 08:26:14;;;;;;;27.80;15.40;;;;;;;16.27;67.65;99819.63;5158172;28;20119;-71
2022/10/12 08:29:05;;;;;;;27.50;15.02;;;;;;;16.38;67.11;99822.00;5155843;28;20249;-71
2022/10/12 08:31:55;;;;;;;37.17;15.43;;;;;;;16.21;68.39;99819.25;5154184;28;20068;-71
2022/10/12 08:34:45;;;;;;;32.15;16.25;;;;;;;16.44;66.88;99816.03;5160830;28;20057;-71
2022/10/12 08:37:35;;;;;;;30.67;15.50;;;;;;;16.40;67.49;99820.03;5147066;28;20508;-71
2022/10/12 08:40:31;;;;;;;32.47;17.27;;;;;;;16.44;66.71;99811.50;5167546;28;20062;-73
2022/10/12 08:43:42;;;;;;;29.33;16.20;;;;;;;16.82;66.37;99816.50;5162932;28;20104;-71
2022/10/12 08:46:33;;;;;;;32.92;17.98;;;;;;;17.18;65.92;99810.84;5167018;28;20225;-76
2022/10/12 08:49:25;;;;;;;32.72;17.75;;;;;;;17.64;64.94;99801.28;5177791;28;20057;-71
2022/10/12 08:52:33;;;;;;;35.58;19.48;;;;;;;17.94;62.43;99802.44;5171466;28;20562;-71
2022/10/12 08:55:45;;;;;;;29.33;18.73;;;;;;;19.11;60.78;99808.81;5139508;28;20061;-70
2022/10/12 08:58:38;;;;;;;38.53;19.63;;;;;;;19.31;60.63;99797.56;5168758;28;20497;-73
2022/10/12 09:01:43;;;;;;;30.30;17.52;;;;;;;19.85;58.75;99803.66;5169316;28;20046;-72
2022/10/12 09:04:56;;;;;;;30.58;16.67;;;;;;;20.03;57.34;99792.50;5155430;28;20065;-73
2022/10/12 09:07:56;;;;;;;32.72;17.25;;;;;;;19.14;59.31;99789.63;5166369;28;20131;-71
2022/10/12 09:11:02;;;;;;;26.67;16.08;;;;;;;19.64;57.48;99782.00;5177014;28;20120;-70
2022/10/12 09:14:07;;;;;;;29.67;15.98;;;;;;;19.75;58.99;99799.56;5168249;28;20181;-71
2022/10/12 09:17:01;;;;;;;27.90;15.57;;;;;;;20.26;57.80;99789.72;5156181;28;20115;-71
2022/10/12 09:20:00;;;;;;;30.73;16.50;;;;;;;21.03;55.88;99786.50;5162971;28;20136;-71
2022/10/12 09:22:55;;;;;;;27.42;16.10;;;;;;;21.23;56.10;99788.56;5170698;28;20432;-73
2022/10/12 09:25:46;;;;;;;29.65;16.17;;;;;;;21.30;55.01;99781.38;5158961;28;20061;-73
2022/10/12 09:28:41;;;;;;;29.10;15.52;;;;;;;21.41;54.84;99788.97;5155975;28;20060;-72
2022/10/12 09:32:16;;;;;;;27.42;16.27;;;;;;;22.04;54.68;99789.00;5159010;28;20078;-72
2022/10/12 09:35:12;;;;;;;25.40;15.27;;;;;;;21.49;52.99;99780.75;5146224;28;20065;-73
2022/10/12 09:38:03;;;;;;;27.95;16.70;;;;;;;21.53;52.89;99783.88;5153216;28;20058;-74
2022/10/12 09:40:52;;;;;;;22.88;15.02;;;;;;;21.58;52.45;99795.72;5158419;28;20069;-72
2022/10/12 09:43:43;;;;;;;30.85;15.70;;;;;;;21.14;56.01;99795.13;5164043;28;20618;-74
2022/10/12 09:46:41;;;;;;;27.10;15.75;;;;;;;20.62;56.09;99797.03;5161767;28;20061;-70
2022/10/12 09:49:46;;;;;;;27.35;16.27;;;;;;;20.49;56.51;99805.75;5162508;28;20435;-70
2022/10/12 09:52:43;;;;;;;28.60;17.95;;;;;;;20.42;55.62;99807.53;5161379;28;20594;-70
2022/10/12 09:55:33;;;;;;;30.02;16.63;;;;;;;20.00;57.71;99800.97;5152003;28;20069;-73
2022/10/12 09:58:26;;;;;;;24.70;14.65;;;;;;;19.78;57.41;99804.56;5167391;28;20057;-74
2022/10/12 10:01:28;;;;;;;28.98;12.20;;;;;;;19.62;57.60;99803.66;5162117;28;20057;-74
2022/10/12 10:04:23;;;;;;;24.65;13.00;;;;;;;19.61;56.28;99779.66;5165121;28;20069;-73
2022/10/12 10:07:27;;;;;;;22.88;14.13;;;;;;;19.94;54.83;99804.41;5163404;28;20080;-73
2022/10/12 10:10:22;;;;;;;32.83;15.15;;;;;;;19.72;57.23;99806.13;5170397;28;20056;-72
2022/10/12 10:13:21;;;;;;;28.05;14.00;;;;;;;19.62;57.14;99802.84;5160551;28;20042;-72
2022/10/12 10:16:11;;;;;;;31.92;14.35;;;;;;;19.57;56.36;99795.31;5152353;28;20053;-72
2022/10/12 10:19:02;;;;;;;23.90;13.93;;;;;;;19.35;57.61;99796.19;5158256;28;20164;-74
2022/10/12 10:21:53;;;;;;;26.48;14.48;;;;;;;19.35;58.36;99790.81;5151632;28;20053;-72
2022/10/12 10:24:58;;;;;;;27.25;13.55;;;;;;;19.46;56.40;99793.88;5152156;28;20069;-74
2022/10/12 10:28:09;;;;;;;30.35;13.73;;;;;;;19.44;56.77;99798.63;5157382;28;20154;-73
2022/10/12 10:31:14;;;;;;;33.22;15.15;;;;;;;19.40;56.41;99797.34;5154585;28;20407;-72
2022/10/12 10:34:12;;;;;;;;;;;;;;;19.23;56.02;99793.91;5152830;28;20534;-71
2022/10/12 10:37:04;;;;;;;26.73;13.70;;;;;;;18.82;57.76;99795.25;5144094;28;20466;-72
2022/10/12 10:39:56;;;;;;;25.85;14.77;;;;;;;18.76;59.13;99786.03;5151350;28;20058;-73
2022/10/12 10:42:55;;;;;;;27.38;14.98;;;;;;;19.19;56.96;99795.28;5174038;28;20062;-72
2022/10/12 10:45:51;;;;;;;34.50;15.75;;;;;;;18.96;58.69;99787.22;5145506;28;20058;-71
2022/10/12 10:48:55;;;;;;;26.17;14.48;;;;;;;18.96;59.79;99797.16;5176852;28;20057;-71
2022/10/12 10:51:50;;;;;;;26.30;14.40;;;;;;;19.11;60.40;99802.59;5177984;28;20432;-71
2022/10/12 10:54:40;;;;;;;31.35;15.30;;;;;;;19.12;60.07;99786.28;5177870;28;20526;-77
2022/10/12 10:57:33;;;;;;;31.25;15.73;;;;;;;19.25;58.99;99797.28;5164292;28;20072;-72
2022/10/12 11:00:24;;;;;;;26.25;14.25;;;;;;;19.25;59.25;99781.13;5162385;28;20173;-73
2022/10/12 11:03:38;;;;;;;31.00;14.88;;;;;;;19.20;59.05;99788.06;5165533;28;20053;-70
2022/10/12 11:06:38;;;;;;;28.38;15.57;;;;;;;19.25;59.35;99791.88;5159480;28;20042;-70
2022/10/12 11:09:38;;;;;;;29.50;16.00;;;;;;;19.21;58.32;99774.47;5156633;28;20053;-71
2022/10/12 11:12:42;;;;;;;35.47;16.13;;;;;;;19.27;58.98;99778.28;5154629;28;20053;-70
2022/10/12 11:15:45;;;;;;;27.80;15.52;;;;;;;19.40;59.16;99785.72;5155399;28;20182;-70
2022/10/12 11:18:43;;;;;;;27.80;15.13;;;;;;;19.57;56.85;99783.72;5141772;28;20054;-70
2022/10/12 11:21:47;;;;;;;27.35;15.15;;;;;;;19.50;57.47;99783.59;5144348;28;20046;-73
2022/10/12 11:25:00;;;;;;;29.40;15.68;;;;;;;19.59;55.69;99777.13;5155489;28;20081;-72
2022/10/12 11:27:51;;;;;;;29.00;14.23;;;;;;;19.54;57.76;99787.63;5127017;28;20070;-72
2022/10/12 11:30:52;;;;;;;27.27;15.27;;;;;;;19.61;56.18;99779.66;5158055;28;20472;-73
2022/10/12 11:33:43;;;;;;;32.35;14.80;;;;;;;19.49;56.19;99784.63;5157939;28;20256;-74
2022/10/12 11:36:40;;;;;;;28.13;14.15;;;;;;;19.09;57.70;99765.13;5160895;28;20131;-74
2022/10/12 11:39:55;;;;;;;38.72;14.35;;;;;;;19.34;57.59;99778.41;5157032;28;20053;-73
2022/10/12 11:42:48;;;;;;;26.38;14.18;;;;;;;19.62;55.72;99767.88;5169260;28;20163;-74
2022/10/12 11:45:42;;;;;;;29.25;12.95;;;;;;;19.34;57.10;99746.13;5165156;28;20199;-73
2022/10/12 11:49:13;;;;;;;33.00;14.95;;;;;;;19.50;57.27;99770.16;5168016;28;20428;-73
2022/10/12 11:52:11;;;;;;;25.13;12.95;;;;;;;19.66;55.86;99759.25;5158159;28;20058;-73
2022/10/12 11:55:34;;;;;;;26.15;13.00;;;;;;;19.54;56.19;99758.03;5165685;28;20065;-72
2022/10/12 11:58:30;;;;;;;25.58;14.57;;;;;;;19.48;57.37;99758.75;5160451;28;20057;-74
2022/10/12 12:02:02;;;;;;;28.98;13.35;;;;;;;19.76;57.41;99750.09;5162427;28;20473;-73
2022/10/12 12:04:52;;;;;;;28.58;13.30;;;;;;;19.50;56.91;99748.63;5164571;28;20058;-70
2022/10/12 12:07:49;;;;;;;29.00;14.52;;;;;;;19.59;56.50;99750.22;5166145;28;20057;-72
2022/10/12 12:10:40;;;;;;;25.20;13.23;;;;;;;19.61;56.95;99752.75;5155650;28;21534;-73
2022/10/12 12:13:30;;;;;;;30.02;12.95;;;;;;;19.32;56.51;99737.41;5166495;28;20559;-74
2022/10/12 12:16:25;;;;;;;30.38;11.88;;;;;;;19.67;56.67;99744.00;5158467;28;20061;-72
2022/10/12 12:19:35;;;;;;;25.02;11.85;;;;;;;19.59;56.23;99744.84;5156753;28;20054;-71
2022/10/12 12:22:25;;;;;;;21.65;11.60;;;;;;;19.74;56.04;99727.94;5154363;28;20053;-71
2022/10/12 12:25:19;;;;;;;19.50;11.00;;;;;;;19.77;56.16;99735.63;5155544;28;20152;-72
2022/10/12 12:28:22;;;;;;;25.48;11.13;;;;;;;19.75;55.55;99716.97;5155202;28;20065;-70
2022/10/12 12:31:25;;;;;;;24.50;12.05;;;;;;;19.76;54.77;99704.34;5153125;28;20059;-74
2022/10/12 12:34:16;;;;;;;29.27;11.60;;;;;;;20.11;55.09;99711.66;5149821;28;20115;-71
2022/10/12 12:37:11;;;;;;;22.08;11.65;;;;;;;20.04;55.22;99716.13;5145853;28;20058;-74
2022/10/12 12:40:02;;;;;;;21.95;11.80;;;;;;;20.28;55.97;99708.75;5150183;28;20073;-76
2022/10/12 12:43:27;;;;;;;30.38;12.20;;;;;;;20.14;54.80;99711.28;5166938;28;20171;-73
2022/10/12 12:46:19;;;;;;;33.65;13.38;;;;;;;20.09;55.33;99711.00;5177327;28;20062;-76
2022/10/12 12:49:26;;;;;;;24.73;12.10;;;;;;;20.16;54.98;99706.56;5169346;28;20057;-73
2022/10/12 12:52:30;;;;;;;30.33;11.48;;;;;;;19.97;55.36;99715.22;5165371;28;20050;-72
2022/10/12 12:55:44;;;;;;;21.70;11.30;;;;;;;19.61;55.34;99680.13;5167165;28;20061;-72
2022/10/12 12:58:42;;;;;;;21.83;11.15;;;;;;;19.99;54.58;99691.63;5168742;28;20284;-74
2022/10/12 13:02:03;;;;;;;25.77;11.52;;;;;;;19.99;56.56;99707.78;5144949;28;20057;-74
2022/10/12 13:04:56;;;;;;;18.73;10.68;;;;;;;19.95;56.35;99701.94;5170646;28;20120;-72
2022/10/12 13:07:56;;;;;;;24.85;11.40;;;;;;;19.75;56.40;99706.22;5140227;28;20527;-77
2022/10/12 13:11:03;;;;;;;21.40;11.15;;;;;;;19.93;57.26;99697.75;5171455;28;20068;-75
2022/10/12 13:14:08;;;;;;;19.75;11.45;;;;;;;19.99;55.17;99688.09;5175557;28;20104;-74
2022/10/12 13:17:07;;;;;;;17.40;10.63;;;;;;;19.79;56.35;99690.53;5155693;28;20080;-75
2022/10/12 13:20:26;;;;;;;23.02;12.68;;;;;;;19.74;56.17;99692.97;5161104;28;20053;-73
2022/10/12 13:23:25;;;;;;;28.85;12.35;;;;;;;19.45;56.90;99686.50;5160627;28;20139;-78
2022/10/12 13:26:22;;;;;;;21.75;11.65;;;;;;;19.45;57.58;99691.88;5166215;28;20057;-72